Time;durP1;ratioP1;P1;durP2;ratioP2;P2;SDS_P1;SDS_P2;PMS_P1;PMS_P2;Temp;Humidity;BMP_temperature;BMP_pressure;BME280_temperature;BME280_humidity;BME280_pressure;Samples;Min_cycle;Max_cycle;Signal;HPM_P1;HPM_P2
2022/06/03 00:02:43;;;;;;;7.10;4.60;;;17.20;99.90;;;;;;4962668;29;20894;-87
2022/06/03 00:05:48;;;;;;;6.37;4.23;;;17.20;99.90;;;;;;4962554;29;20453;-87
2022/06/03 00:08:33;;;;;;;6.20;4.87;;;17.20;99.90;;;;;;4962122;29;20459;-87
2022/06/03 00:11:35;;;;;;;6.70;4.90;;;17.20;99.90;;;;;;4962148;29;20452;-87
2022/06/03 00:14:41;;;;;;;6.90;5.00;;;17.20;99.90;;;;;;4963584;28;20598;-85
2022/06/03 00:17:22;;;;;;;10.93;5.23;;;17.10;99.90;;;;;;4964215;29;20499;-86
2022/06/03 00:20:02;;;;;;;6.87;5.03;;;17.00;99.90;;;;;;4969549;29;20428;-86
2022/06/03 00:23:04;;;;;;;6.30;4.77;;;16.90;99.90;;;;;;4977879;29;20549;-87
2022/06/03 00:26:00;;;;;;;6.73;5.30;;;16.90;99.90;;;;;;4975505;29;20467;-87
2022/06/03 00:29:11;;;;;;;7.47;4.67;;;16.80;99.90;;;;;;4961235;29;20510;-87
2022/06/03 00:32:04;;;;;;;5.20;4.10;;;16.80;99.90;;;;;;4978301;29;20463;-86
2022/06/03 00:34:54;;;;;;;7.30;5.40;;;16.80;99.90;;;;;;4968955;28;20860;-85
2022/06/03 00:37:32;;;;;;;7.03;5.07;;;16.80;99.90;;;;;;4966982;28;20483;-86
2022/06/03 00:40:07;;;;;;;8.43;5.37;;;16.80;99.90;;;;;;4960020;29;20459;-86
2022/06/03 00:43:04;;;;;;;6.20;4.50;;;16.80;99.90;;;;;;4960214;29;20519;-87
2022/06/03 00:45:46;;;;;;;6.07;4.70;;;16.80;99.90;;;;;;4967209;29;20466;-87
2022/06/03 00:48:40;;;;;;;7.17;5.00;;;16.90;99.90;;;;;;4967037;28;20425;-87
2022/06/03 00:51:41;;;;;;;8.40;5.43;;;16.90;99.90;;;;;;4980179;28;20454;-84
2022/06/03 00:54:41;;;;;;;7.70;4.70;;;16.90;99.90;;;;;;4954941;29;20490;-87
2022/06/03 00:57:29;;;;;;;6.93;4.70;;;16.90;99.90;;;;;;4968787;29;20471;-87
2022/06/03 01:00:08;;;;;;;6.33;4.60;;;16.90;99.90;;;;;;4974893;29;20455;-87
2022/06/03 01:03:09;;;;;;;7.20;4.23;;;17.00;99.90;;;;;;4964250;28;20436;-87
2022/06/03 01:05:52;;;;;;;8.53;5.37;;;17.00;99.90;;;;;;4963239;28;20849;-88
2022/06/03 01:08:27;;;;;;;6.20;5.10;;;16.70;99.90;;;;;;4961757;29;20444;-87
2022/06/03 01:11:14;;;;;;;7.73;5.07;;;16.70;99.90;;;;;;4965077;28;20509;-88
2022/06/03 01:14:03;;;;;;;6.27;4.77;;;16.60;99.90;;;;;;4964480;29;20493;-87
2022/06/03 01:16:54;;;;;;;5.30;4.57;;;16.70;99.90;;;;;;4977166;29;20435;-87
2022/06/03 01:19:39;;;;;;;6.80;4.70;;;16.70;99.90;;;;;;4980555;29;20707;-88
2022/06/03 01:22:21;;;;;;;5.73;4.63;;;16.70;99.90;;;;;;4982021;28;20439;-88
2022/06/03 01:25:05;;;;;;;6.40;5.33;;;16.70;99.90;;;;;;4970508;29;20471;-88
2022/06/03 01:28:26;;;;;;;6.60;4.77;;;16.70;99.90;;;;;;4968389;29;20490;-89
2022/06/03 01:31:18;;;;;;;8.70;4.97;;;16.70;99.90;;;;;;4925595;29;20453;-87
2022/06/03 01:34:03;;;;;;;6.70;4.97;;;16.60;99.90;;;;;;4965664;28;20497;-88
2022/06/03 01:36:45;;;;;;;6.90;4.93;;;16.50;99.90;;;;;;4968937;29;20774;-88
2022/06/03 01:39:33;;;;;;;7.60;5.57;;;16.40;99.90;;;;;;4978345;28;20484;-86
2022/06/03 01:42:48;;;;;;;6.77;4.87;;;16.30;99.90;;;;;;4981573;28;20440;-88
2022/06/03 01:45:54;;;;;;;5.80;4.33;;;16.40;99.90;;;;;;4977251;28;20454;-87
2022/06/03 01:48:43;;;;;;;7.73;5.10;;;16.40;99.90;;;;;;4975681;28;20481;-86
2022/06/03 01:51:46;;;;;;;5.87;4.63;;;16.40;99.90;;;;;;4969028;29;20821;-88
2022/06/03 01:54:37;;;;;;;5.77;4.60;;;16.40;99.90;;;;;;4952601;28;20475;-87
2022/06/03 01:57:37;;;;;;;6.30;5.20;;;16.40;99.90;;;;;;4975402;29;20516;-88
2022/06/03 02:00:20;;;;;;;6.23;4.70;;;16.30;99.90;;;;;;4975404;29;20450;-87
2022/06/03 02:03:35;;;;;;;6.87;4.70;;;16.40;99.90;;;;;;4974320;29;20507;-88
2022/06/03 02:06:28;;;;;;;7.13;5.80;;;16.40;99.90;;;;;;4975270;28;20501;-86
2022/06/03 02:09:26;;;;;;;5.53;4.93;;;16.40;99.90;;;;;;4957270;28;20452;-88
2022/06/03 02:12:18;;;;;;;9.03;5.50;;;16.40;99.90;;;;;;4974262;29;20448;-88
2022/06/03 02:15:22;;;;;;;8.40;5.43;;;16.40;99.90;;;;;;4970872;29;20551;-88
2022/06/03 02:18:37;;;;;;;6.50;5.20;;;16.30;99.90;;;;;;4972146;28;20500;-84
2022/06/03 02:21:26;;;;;;;8.13;4.97;;;16.30;99.90;;;;;;4980594;28;20458;-84
2022/06/03 02:24:29;;;;;;;9.33;5.03;;;16.30;99.90;;;;;;4978557;28;20495;-87
2022/06/03 02:27:38;;;;;;;6.30;4.53;;;16.40;99.90;;;;;;4976398;29;20495;-87
2022/06/03 02:30:35;;;;;;;6.90;5.20;;;16.30;99.90;;;;;;4968914;28;20463;-87
2022/06/03 02:33:44;;;;;;;8.20;5.70;;;16.30;99.90;;;;;;4967688;29;20588;-87
2022/06/03 02:36:42;;;;;;;5.97;5.00;;;16.20;99.90;;;;;;4983633;23;20522;-88
2022/06/03 02:39:22;;;;;;;7.50;5.10;;;16.30;99.90;;;;;;4966834;29;20574;-88
2022/06/03 02:42:19;;;;;;;8.50;5.77;;;16.20;99.90;;;;;;4962927;29;20455;-88
2022/06/03 02:45:14;;;;;;;8.33;4.70;;;16.20;99.90;;;;;;4966417;28;20472;-88
2022/06/03 02:48:06;;;;;;;6.70;5.23;;;16.20;99.90;;;;;;4959363;28;20434;-88
2022/06/03 02:50:59;;;;;;;5.90;5.07;;;16.30;99.90;;;;;;4945567;29;20467;-89
2022/06/03 02:54:15;;;;;;;7.57;4.93;;;16.40;99.90;;;;;;4947850;29;20540;-89
2022/06/03 02:57:15;;;;;;;7.93;4.60;;;16.30;99.90;;;;;;4902070;29;20486;-88
2022/06/03 03:00:12;;;;;;;5.53;4.63;;;16.20;99.90;;;;;;4900784;29;20581;-89
2022/06/03 03:03:05;;;;;;;5.70;4.53;;;16.20;99.90;;;;;;4934780;29;20475;-89
2022/06/03 03:05:50;;;;;;;6.27;5.07;;;16.20;99.90;;;;;;4945011;29;20487;-89
2022/06/03 03:08:35;;;;;;;6.97;5.03;;;16.20;99.90;;;;;;4941907;29;20462;-89
2022/06/03 03:11:38;;;;;;;7.57;5.17;;;16.20;99.90;;;;;;4919128;29;20547;-89
2022/06/03 03:14:27;;;;;;;6.10;5.40;;;16.20;99.90;;;;;;4922251;29;20548;-88
2022/06/03 03:17:14;;;;;;;6.97;5.50;;;16.10;99.90;;;;;;4938547;29;20481;-89
2022/06/03 03:20:21;;;;;;;6.33;5.00;;;16.20;99.90;;;;;;4939330;29;20480;-89
2022/06/03 03:23:17;;;;;;;8.67;5.50;;;16.20;99.90;;;;;;4940563;29;20522;-89
2022/06/03 03:25:57;;;;;;;7.50;5.17;;;16.10;99.90;;;;;;4950250;29;20531;-89
2022/06/03 03:29:04;;;;;;;8.60;5.80;;;16.10;99.90;;;;;;4951740;29;20443;-89
2022/06/03 03:31:51;;;;;;;6.87;5.50;;;16.10;99.90;;;;;;4938059;29;20958;-89
2022/06/03 03:34:47;;;;;;;9.30;5.70;;;16.10;99.90;;;;;;4937987;29;20418;-89
2022/06/03 03:37:53;;;;;;;6.10;5.03;;;16.20;99.90;;;;;;4939098;29;20481;-89
2022/06/03 03:40:47;;;;;;;6.60;5.00;;;16.10;99.90;;;;;;4875878;29;20452;-88
2022/06/03 03:44:04;;;;;;;6.90;4.53;;;16.00;99.90;;;;;;4939283;29;20762;-89
2022/06/03 03:47:08;;;;;;;6.20;5.30;;;16.00;99.90;;;;;;4942377;29;20589;-88
2022/06/03 03:50:12;;;;;;;8.67;4.87;;;16.00;99.90;;;;;;4955353;28;20459;-88
2022/06/03 03:53:16;;;;;;;6.40;5.27;;;16.10;99.90;;;;;;4945968;29;20494;-88
2022/06/03 03:56:13;;;;;;;8.77;4.93;;;16.00;99.90;;;;;;4947536;29;20467;-89
2022/06/03 03:59:15;;;;;;;8.27;5.90;;;15.90;99.90;;;;;;4931744;29;20532;-88
2022/06/03 04:02:20;;;;;;;6.50;5.40;;;15.90;99.90;;;;;;4941138;29;20574;-89
2022/06/03 04:05:18;;;;;;;7.27;5.47;;;15.90;99.90;;;;;;4937015;29;20422;-89
2022/06/03 04:08:03;;;;;;;9.03;5.57;;;16.00;99.90;;;;;;4939122;29;20482;-90
2022/06/03 04:10:51;;;;;;;7.73;5.70;;;16.00;99.90;;;;;;4939559;29;20447;-90
2022/06/03 04:14:02;;;;;;;8.57;6.40;;;16.00;99.90;;;;;;4941585;29;20508;-89
2022/06/03 04:16:58;;;;;;;8.40;6.40;;;16.00;99.90;;;;;;4941742;29;21041;-90
2022/06/03 04:19:57;;;;;;;8.00;6.30;;;16.00;99.90;;;;;;4940380;29;20523;-89
2022/06/03 04:23:01;;;;;;;8.37;6.50;;;16.00;99.90;;;;;;4940535;29;20476;-89
2022/06/03 04:25:56;;;;;;;8.77;6.23;;;15.90;99.90;;;;;;4939313;29;20484;-88
2022/06/03 04:29:34;;;;;;;7.80;5.60;;;16.00;99.90;;;;;;4942307;29;20512;-88
2022/06/03 04:32:49;;;;;;;9.03;6.10;;;15.90;99.90;;;;;;4903961;29;20461;-89
2022/06/03 04:35:40;;;;;;;7.50;5.90;;;16.00;99.90;;;;;;4897791;29;20952;-88
2022/06/03 04:39:07;;;;;;;7.67;6.60;;;16.00;99.90;;;;;;4951102;29;20500;-88
2022/06/03 04:42:27;;;;;;;9.70;6.20;;;16.00;99.90;;;;;;4951649;29;20454;-88
2022/06/03 04:45:27;;;;;;;6.63;5.63;;;16.00;99.90;;;;;;4919803;29;20442;-87
2022/06/03 04:48:30;;;;;;;7.97;6.07;;;16.10;99.90;;;;;;4886529;29;20555;-87
2022/06/03 04:51:42;;;;;;;7.87;6.17;;;16.20;99.90;;;;;;4938958;29;20870;-88
2022/06/03 04:54:46;;;;;;;6.50;5.60;;;16.30;99.90;;;;;;4915946;29;20513;-89
2022/06/03 04:58:00;;;;;;;8.63;6.13;;;16.40;99.90;;;;;;4940511;29;20919;-88
2022/06/03 05:00:56;;;;;;;9.23;6.30;;;16.30;99.90;;;;;;4921236;29;20585;-88
2022/06/03 05:04:22;;;;;;;7.67;6.40;;;16.30;99.90;;;;;;4939269;29;20810;-88
2022/06/03 05:07:34;;;;;;;6.50;5.80;;;16.50;99.90;;;;;;4899625;29;20888;-89
2022/06/03 05:10:51;;;;;;;7.17;6.20;;;16.60;99.90;;;;;;4889266;29;20482;-89
2022/06/03 05:14:05;;;;;;;17.37;9.00;;;16.80;99.90;;;;;;4938717;29;20496;-89
2022/06/03 05:17:08;;;;;;;11.07;6.20;;;17.00;99.90;;;;;;4941336;29;20476;-89
2022/06/03 05:20:05;;;;;;;8.13;6.43;;;17.00;99.90;;;;;;4956952;28;20491;-87
2022/06/03 05:22:55;;;;;;;7.07;6.37;;;17.10;99.90;;;;;;4958341;28;20487;-88
2022/06/03 05:25:52;;;;;;;9.47;6.50;;;17.30;99.90;;;;;;4955174;28;20493;-89
2022/06/03 05:28:56;;;;;;;8.37;6.77;;;17.50;99.90;;;;;;4948489;29;20556;-89
2022/06/03 05:32:21;;;;;;;11.13;6.97;;;17.60;99.90;;;;;;4917433;29;20456;-89
2022/06/03 05:35:27;;;;;;;8.13;6.50;;;17.70;99.90;;;;;;4898370;29;20465;-90
2022/06/03 05:38:09;;;;;;;9.10;6.90;;;17.90;99.90;;;;;;4887698;29;20470;-90
2022/06/03 05:40:53;;;;;;;8.83;7.33;;;17.90;99.90;;;;;;4946965;29;20524;-89
2022/06/03 05:43:48;;;;;;;8.77;7.93;;;18.10;99.90;;;;;;4939881;29;20881;-90
2022/06/03 05:46:20;;;;;;;9.17;7.77;;;18.20;99.90;;;;;;4938930;29;21062;-90
2022/06/03 05:48:56;;;;;;;8.17;7.30;;;18.30;99.90;;;;;;4939779;29;20446;-89
2022/06/03 05:51:40;;;;;;;8.13;7.30;;;18.50;99.90;;;;;;4940005;29;20954;-89
2022/06/03 05:54:20;;;;;;;11.73;7.40;;;18.50;99.90;;;;;;4944223;29;20450;-89
2022/06/03 05:56:59;;;;;;;10.83;7.50;;;18.60;99.90;;;;;;4943691;29;20504;-90
2022/06/03 05:59:46;;;;;;;9.17;7.57;;;18.80;99.90;;;;;;4942173;29;20569;-89
2022/06/03 06:02:23;;;;;;;7.87;6.67;;;18.90;99.90;;;;;;4941759;29;20888;-90
2022/06/03 06:05:11;;;;;;;10.57;7.97;;;18.90;99.90;;;;;;4943933;29;20419;-90
2022/06/03 06:07:44;;;;;;;10.87;7.80;;;19.10;99.90;;;;;;4945294;29;20510;-90
2022/06/03 06:10:26;;;;;;;9.10;7.83;;;19.30;99.90;;;;;;4948390;29;20433;-90
2022/06/03 06:13:05;;;;;;;11.27;7.57;;;19.50;99.90;;;;;;4944682;29;20455;-90
2022/06/03 06:16:02;;;;;;;8.33;7.23;;;19.60;99.90;;;;;;4942772;29;20579;-90
2022/06/03 06:18:42;;;;;;;8.63;7.30;;;19.70;99.90;;;;;;4943776;29;20461;-91
2022/06/03 06:21:22;;;;;;;9.03;7.20;;;19.80;99.90;;;;;;4944409;29;20489;-90
2022/06/03 06:24:05;;;;;;;8.87;7.73;;;20.00;99.90;;;;;;4942719;29;20448;-90
2022/06/03 06:27:17;;;;;;;9.90;8.60;;;20.00;99.90;;;;;;4942522;29;20626;-90
2022/06/03 06:30:26;;;;;;;11.20;8.40;;;19.80;99.90;;;;;;4942377;29;20484;-90
2022/06/03 06:33:36;;;;;;;10.00;7.70;;;19.80;99.90;;;;;;4955136;29;20434;-89
2022/06/03 06:36:40;;;;;;;8.83;7.93;;;19.70;99.90;;;;;;4941498;29;20547;-89
2022/06/03 06:39:17;;;;;;;9.23;7.87;;;19.60;99.90;;;;;;4944145;29;20461;-87
2022/06/03 06:41:53;;;;;;;10.10;8.00;;;19.70;99.90;;;;;;4944948;29;20513;-89
2022/06/03 06:44:33;;;;;;;11.70;8.90;;;19.80;99.90;;;;;;4947741;28;20488;-88
2022/06/03 06:47:22;;;;;;;9.33;7.40;;;20.00;99.90;;;;;;4958103;28;20541;-88
2022/06/03 06:50:10;;;;;;;9.60;8.53;;;20.00;99.90;;;;;;4954114;29;20463;-89
2022/06/03 06:52:50;;;;;;;11.90;8.13;;;20.30;99.90;;;;;;4941640;29;20462;-90
2022/06/03 06:55:30;;;;;;;10.93;7.13;;;20.30;99.90;;;;;;4945968;29;20520;-88
2022/06/03 06:58:01;;;;;;;9.70;7.23;;;20.50;99.90;;;;;;4951353;29;20525;-89
2022/06/03 07:00:32;;;;;;;15.03;7.10;;;20.70;99.90;;;;;;4946848;29;20987;-89
2022/06/03 07:03:07;;;;;;;9.30;7.67;;;21.00;99.90;;;;;;4944611;29;20423;-90
2022/06/03 07:05:41;;;;;;;11.37;6.77;;;21.00;99.90;;;;;;4943806;29;20478;-90
2022/06/03 07:08:16;;;;;;;8.40;7.37;;;21.10;99.90;;;;;;4942075;29;20470;-90
2022/06/03 07:10:50;;;;;;;8.47;7.03;;;21.10;99.90;;;;;;4943988;29;20457;-90
2022/06/03 07:13:24;;;;;;;8.73;6.87;;;21.20;99.90;;;;;;4942108;29;20553;-90
2022/06/03 07:16:08;;;;;;;8.27;7.40;;;21.30;99.90;;;;;;4942557;29;20885;-90
2022/06/03 07:21:41;;;;;;;9.90;7.27;;;21.40;99.90;;;;;;4941498;29;20419;-90
2022/06/03 07:24:20;;;;;;;9.17;6.40;;;21.50;99.90;;;;;;4944097;29;20427;-90
2022/06/03 07:26:58;;;;;;;8.77;6.07;;;21.60;99.90;;;;;;4946313;29;20500;-90
2022/06/03 07:29:33;;;;;;;8.07;7.37;;;21.60;99.90;;;;;;4944868;29;20784;-89
2022/06/03 07:32:04;;;;;;;10.93;7.33;;;21.70;99.90;;;;;;4944867;29;20510;-90
2022/06/03 07:34:37;;;;;;;7.00;6.30;;;21.80;99.90;;;;;;4941647;29;20465;-90
2022/06/03 07:37:09;;;;;;;9.47;6.60;;;21.80;99.90;;;;;;4941762;29;20536;-90
2022/06/03 07:39:50;;;;;;;7.57;6.47;;;21.90;99.90;;;;;;4941484;29;20561;-90
2022/06/03 07:42:24;;;;;;;9.00;6.27;;;22.00;99.90;;;;;;4944544;29;20526;-89
2022/06/03 07:45:03;;;;;;;7.47;6.00;;;22.20;99.90;;;;;;4942753;29;20458;-89
2022/06/03 07:47:30;;;;;;;8.77;6.00;;;22.30;99.90;;;;;;4941796;29;20494;-90
2022/06/03 07:50:01;;;;;;;9.30;7.17;;;22.40;99.90;;;;;;4942240;29;20451;-89
2022/06/03 07:52:35;;;;;;;11.23;6.60;;;22.30;99.90;;;;;;4951971;29;20470;-89
2022/06/03 07:55:09;;;;;;;7.93;6.13;;;22.40;99.90;;;;;;4958855;28;20462;-89
2022/06/03 07:57:36;;;;;;;9.37;6.10;;;22.60;99.90;;;;;;4954593;29;20761;-89
2022/06/03 08:00:12;;;;;;;8.00;5.87;;;22.80;99.90;;;;;;4943428;29;20852;-89
2022/06/03 08:02:39;;;;;;;7.10;5.43;;;22.90;99.90;;;;;;4939969;29;20533;-89
2022/06/03 08:05:11;;;;;;;8.90;5.63;;;23.00;99.90;;;;;;4958762;28;20659;-88
2022/06/03 08:13:12;;;;;;;6.63;5.67;;;23.40;99.90;;;;;;4958488;28;20415;-89
2022/06/03 08:15:45;;;;;;;7.40;5.47;;;23.50;99.90;;;;;;4946026;29;20486;-89
2022/06/03 08:18:17;;;;;;;8.43;5.80;;;23.60;99.90;;;;;;4948657;29;20446;-89
2022/06/03 08:20:51;;;;;;;7.10;5.80;;;23.70;99.90;;;;;;4948587;29;20478;-89
2022/06/03 08:23:20;;;;;;;8.10;6.77;;;23.80;99.90;;;;;;4951238;29;20442;-88
2022/06/03 08:25:51;;;;;;;8.90;7.17;;;23.90;99.90;;;;;;4956033;28;20553;-89
2022/06/03 08:28:22;;;;;;;9.10;6.03;;;23.70;99.90;;;;;;4957398;29;20438;-89
2022/06/03 08:30:54;;;;;;;9.70;6.57;;;23.60;99.90;;;;;;4947041;28;20473;-89
2022/06/03 08:33:30;;;;;;;8.80;6.30;;;23.50;99.90;;;;;;4946732;29;20439;-89
2022/06/03 08:36:00;;;;;;;6.57;5.97;;;23.50;99.90;;;;;;4972804;23;20524;-87
2022/06/03 08:38:34;;;;;;;7.00;6.30;;;23.40;99.90;;;;;;4976904;29;20442;-87
2022/06/03 08:41:15;;;;;;;8.07;7.30;;;23.50;99.90;;;;;;4964155;29;20477;-87
2022/06/03 08:44:01;;;;;;;10.73;6.53;;;23.60;99.90;;;;;;4964370;29;20441;-87
2022/06/03 08:46:36;;;;;;;10.63;6.30;;;23.80;99.90;;;;;;4962984;29;20544;-87
2022/06/03 08:49:08;;;;;;;11.10;6.77;;;23.90;99.90;;;;;;4967528;28;20402;-85
2022/06/03 08:51:43;;;;;;;13.43;6.33;;;24.00;99.90;;;;;;4979111;28;20462;-86
2022/06/03 08:54:20;;;;;;;8.50;6.40;;;24.10;99.90;;;;;;4978823;28;20433;-87
2022/06/03 08:56:51;;;;;;;9.63;7.20;;;24.30;99.90;;;;;;4963458;29;20477;-87
2022/06/03 08:59:23;;;;;;;6.83;6.20;;;24.50;99.90;;;;;;4964136;28;20444;-87
2022/06/03 09:01:58;;;;;;;9.53;6.17;;;24.60;99.90;;;;;;4963626;29;20446;-87
2022/06/03 09:04:33;;;;;;;7.00;5.20;;;24.60;99.90;;;;;;4963188;29;20796;-87
2022/06/03 09:07:07;;;;;;;8.00;5.73;;;24.60;99.90;;;;;;4963933;29;21013;-87
2022/06/03 09:09:42;;;;;;;9.03;6.53;;;24.50;99.90;;;;;;4969210;29;20417;-86
2022/06/03 09:12:16;;;;;;;9.40;6.30;;;24.50;99.90;;;;;;4966623;29;20429;-86
2022/06/03 09:14:44;;;;;;;7.80;5.67;;;24.70;99.90;;;;;;4965172;29;20478;-86
2022/06/03 09:17:37;;;;;;;7.50;5.83;;;24.70;99.90;;;;;;4963608;29;20537;-87
2022/06/03 09:20:15;;;;;;;8.60;6.03;;;24.80;99.90;;;;;;4964263;29;20496;-88
2022/06/03 09:22:57;;;;;;;7.20;5.37;;;24.80;99.90;;;;;;4966185;29;20446;-88
2022/06/03 09:25:28;;;;;;;9.43;5.47;;;25.00;99.90;;;;;;4969521;28;20434;-88
2022/06/03 09:27:56;;;;;;;9.63;5.50;;;25.20;99.90;;;;;;4973775;28;20516;-87
2022/06/03 09:30:37;;;;;;;6.73;5.07;;;25.30;99.50;;;;;;4973142;28;20457;-88
2022/06/03 09:33:08;;;;;;;5.87;4.90;;;25.20;99.40;;;;;;4980316;28;20424;-86
2022/06/03 09:35:39;;;;;;;7.20;4.70;;;25.30;98.90;;;;;;4978934;28;20512;-87
2022/06/03 09:38:09;;;;;;;8.57;6.00;;;25.40;99.10;;;;;;4972256;29;20472;-86
2022/06/03 09:40:44;;;;;;;8.50;5.27;;;25.50;98.70;;;;;;4970006;29;20469;-88
2022/06/03 09:43:18;;;;;;;6.90;5.10;;;25.70;98.20;;;;;;4966538;29;20456;-88
2022/06/03 09:45:46;;;;;;;8.97;5.40;;;25.70;98.00;;;;;;4966979;29;20994;-88
2022/06/03 09:48:26;;;;;;;6.30;5.33;;;25.90;97.90;;;;;;4966017;29;20520;-88
2022/06/03 09:50:56;;;;;;;8.03;5.70;;;26.00;97.60;;;;;;4967363;29;20453;-88
2022/06/03 09:53:30;;;;;;;6.80;5.83;;;25.90;97.70;;;;;;4972541;29;20472;-87
2022/06/03 09:56:07;;;;;;;8.10;5.50;;;26.00;97.60;;;;;;4975384;29;20476;-88
2022/06/03 09:58:36;;;;;;;7.40;6.17;;;26.00;97.80;;;;;;4978341;29;20477;-87
2022/06/03 10:01:09;;;;;;;8.20;7.10;;;26.20;97.50;;;;;;4980005;28;20484;-88
2022/06/03 10:03:47;;;;;;;7.63;6.33;;;26.30;97.40;;;;;;4968499;29;20442;-88
2022/06/03 10:14:27;;;;;;;6.00;5.40;;;26.60;96.40;;;;;;4980018;28;20453;-86
2022/06/03 10:16:57;;;;;;;7.30;5.50;;;26.80;96.00;;;;;;4978065;28;20508;-87
2022/06/03 10:19:44;;;;;;;6.20;5.53;;;26.90;95.60;;;;;;4970089;29;21036;-88
2022/06/03 10:22:14;;;;;;;6.93;6.00;;;27.00;95.00;;;;;;4969290;29;20510;-88
2022/06/03 10:24:59;;;;;;;8.53;5.57;;;27.10;95.20;;;;;;4971998;29;20485;-88
2022/06/03 10:27:30;;;;;;;6.83;5.10;;;27.10;94.40;;;;;;4970059;29;20484;-89
2022/06/03 10:30:03;;;;;;;7.33;5.33;;;27.10;94.20;;;;;;4972477;29;20485;-87
2022/06/03 10:32:32;;;;;;;5.63;4.70;;;27.10;94.30;;;;;;4980562;28;20524;-87
2022/06/03 10:35:13;;;;;;;10.40;4.67;;;27.00;93.30;;;;;;4980501;28;20429;-87
2022/06/03 10:37:52;;;;;;;5.83;5.23;;;27.00;93.00;;;;;;4979739;28;20461;-88
2022/06/03 10:40:21;;;;;;;14.23;5.67;;;27.10;93.00;;;;;;4976720;29;20477;-89
2022/06/03 10:42:51;;;;;;;8.47;5.07;;;27.30;93.00;;;;;;4973575;28;20461;-89
2022/06/03 10:45:27;;;;;;;6.80;5.00;;;27.70;92.60;;;;;;4974301;28;20521;-88
2022/06/03 10:47:57;;;;;;;7.30;4.40;;;28.00;91.70;;;;;;4973562;29;20533;-87
2022/06/03 10:50:40;;;;;;;7.00;5.27;;;28.20;90.70;;;;;;4976176;28;20488;-87
2022/06/03 11:01:59;;;;;;;6.07;4.60;;;28.40;89.20;;;;;;4970655;29;20489;-88
2022/06/03 11:04:43;;;;;;;5.50;4.63;;;28.40;89.10;;;;;;4969512;28;20463;-88
2022/06/03 11:07:29;;;;;;;6.33;5.17;;;28.60;88.00;;;;;;4969372;29;20489;-89
2022/06/03 11:10:00;;;;;;;6.93;4.87;;;28.70;86.80;;;;;;4973007;28;20422;-88
2022/06/03 11:12:31;;;;;;;7.77;4.90;;;28.60;86.60;;;;;;4976598;28;20418;-87
2022/06/03 11:14:59;;;;;;;7.03;4.93;;;28.50;86.90;;;;;;4973436;29;20466;-88
2022/06/03 11:17:43;;;;;;;6.10;5.40;;;28.50;87.40;;;;;;4980247;28;20556;-88
2022/06/03 11:20:35;;;;;;;10.10;6.20;;;28.30;87.10;;;;;;4978939;28;20469;-88
2022/06/03 11:23:07;;;;;;;6.80;5.63;;;28.20;87.90;;;;;;4978439;29;20458;-88
2022/06/03 11:25:41;;;;;;;8.33;6.73;;;28.20;88.70;;;;;;4969509;29;20485;-87
2022/06/03 11:28:21;;;;;;;8.50;5.60;;;28.00;89.00;;;;;;4969699;29;20465;-89
2022/06/03 11:30:57;;;;;;;8.60;5.97;;;27.80;89.70;;;;;;4975647;29;20438;-88
2022/06/03 11:33:31;;;;;;;6.70;6.00;;;27.80;90.40;;;;;;4975039;29;20488;-88
2022/06/03 11:36:12;;;;;;;7.50;6.70;;;27.50;90.60;;;;;;4976220;29;20484;-88
2022/06/03 11:38:45;;;;;;;6.90;5.90;;;27.50;90.80;;;;;;4973596;29;20458;-88
2022/06/03 11:41:25;;;;;;;9.10;5.87;;;27.50;91.10;;;;;;4972074;29;20481;-88
2022/06/03 11:44:03;;;;;;;7.90;5.50;;;27.20;91.60;;;;;;4972990;29;20476;-87
2022/06/03 11:46:37;;;;;;;8.27;6.00;;;26.90;92.30;;;;;;4967588;29;20505;-87
2022/06/03 11:49:07;;;;;;;7.13;5.30;;;26.80;93.30;;;;;;4968512;29;20548;-88
2022/06/03 11:51:37;;;;;;;6.70;5.67;;;26.60;93.90;;;;;;4967263;29;20927;-88
2022/06/03 11:54:09;;;;;;;12.67;6.10;;;26.60;94.10;;;;;;4965693;28;20446;-87
2022/06/03 11:56:38;;;;;;;6.73;6.00;;;26.40;94.90;;;;;;4965483;29;20508;-87
2022/06/03 11:59:13;;;;;;;7.43;5.93;;;26.20;95.50;;;;;;4965348;29;20471;-88
2022/06/03 12:01:56;;;;;;;10.60;6.00;;;26.20;96.20;;;;;;4965310;29;20923;-87
2022/06/03 12:04:39;;;;;;;14.60;8.87;;;26.30;96.40;;;;;;4966094;29;20458;-87
2022/06/03 12:07:18;;;;;;;10.40;7.07;;;26.50;96.60;;;;;;4969368;28;20476;-88
2022/06/03 12:09:53;;;;;;;10.03;6.20;;;26.70;95.80;;;;;;4972815;29;20464;-86
2022/06/03 12:15:34;;;;;;;8.50;5.93;;;26.30;96.40;;;;;;4966597;29;20501;-87
2022/06/03 12:18:17;;;;;;;10.57;6.73;;;26.40;95.80;;;;;;4978026;29;20488;-88
2022/06/03 12:20:55;;;;;;;8.37;6.97;;;26.50;95.80;;;;;;4975429;28;20485;-89
2022/06/03 12:23:55;;;;;;;6.63;5.93;;;26.60;95.70;;;;;;4970939;28;20954;-89
2022/06/03 12:26:38;;;;;;;7.33;6.07;;;26.90;95.40;;;;;;4966655;29;20481;-90
2022/06/03 12:29:17;;;;;;;6.73;5.33;;;27.20;94.90;;;;;;4968031;28;20460;-89
2022/06/03 12:31:54;;;;;;;6.97;6.27;;;27.10;94.70;;;;;;4974822;28;20557;-89
2022/06/03 12:34:24;;;;;;;8.17;7.10;;;27.20;94.80;;;;;;4971852;29;20421;-88
2022/06/03 12:37:00;;;;;;;7.50;6.70;;;27.30;94.90;;;;;;4964442;29;20473;-89
2022/06/03 12:39:29;;;;;;;10.20;6.80;;;27.30;94.80;;;;;;4962794;29;20445;-89
2022/06/03 12:42:04;;;;;;;7.90;5.83;;;27.10;95.20;;;;;;4964478;29;20504;-89
2022/06/03 12:44:51;;;;;;;9.63;6.47;;;26.90;95.40;;;;;;4964207;28;20870;-89
2022/06/03 12:47:48;;;;;;;8.37;6.20;;;27.20;95.80;;;;;;4966183;29;20485;-88
2022/06/03 12:50:31;;;;;;;6.63;5.83;;;27.00;95.50;;;;;;4967562;29;20476;-89
2022/06/03 12:53:16;;;;;;;10.47;6.83;;;27.10;95.70;;;;;;4965920;29;20489;-90
2022/06/03 12:58:59;;;;;;;8.30;6.20;;;27.10;95.40;;;;;;4964512;28;20794;-90
2022/06/03 13:01:48;;;;;;;8.63;6.17;;;27.10;95.40;;;;;;4978407;28;20460;-87
2022/06/03 13:05:07;;;;;;;10.87;6.53;;;27.20;95.40;;;;;;4978244;28;20449;-88
2022/06/03 13:07:36;;;;;;;10.00;6.20;;;26.90;95.70;;;;;;4957232;28;20465;-88
2022/06/03 13:10:54;;;;;;;10.73;7.07;;;26.80;96.10;;;;;;4977157;29;20441;-89
2022/06/03 13:13:48;;;;;;;8.17;7.00;;;26.80;96.10;;;;;;4971523;28;20446;-89
2022/06/03 13:16:44;;;;;;;11.73;6.67;;;26.90;96.00;;;;;;4979774;28;20492;-88
2022/06/03 13:19:42;;;;;;;9.70;6.60;;;26.70;96.40;;;;;;4982287;28;20449;-89
2022/06/03 13:22:18;;;;;;;8.73;6.83;;;26.50;97.10;;;;;;4976952;28;20487;-89
2022/06/03 13:25:25;;;;;;;9.00;7.23;;;26.40;99.10;;;;;;4971107;29;20524;-89
2022/06/03 13:28:33;;;;;;;9.87;7.00;;;26.30;99.90;;;;;;4973841;29;20421;-89
2022/06/03 13:31:12;;;;;;;11.30;6.87;;;26.10;99.90;;;;;;4964534;28;20455;-90
2022/06/03 13:34:27;;;;;;;8.53;6.77;;;25.90;99.90;;;;;;4969863;29;20446;-89
2022/06/03 13:37:45;;;;;;;8.33;7.27;;;26.00;99.90;;;;;;4970897;28;20481;-88
2022/06/03 13:40:35;;;;;;;7.87;7.07;;;26.10;99.90;;;;;;4973412;28;20465;-88
2022/06/03 13:43:24;;;;;;;9.87;8.10;;;25.90;99.90;;;;;;4975989;28;20493;-89
2022/06/03 13:46:25;;;;;;;10.47;6.67;;;26.10;99.90;;;;;;4978422;28;20457;-90
2022/06/03 13:48:58;;;;;;;10.40;7.57;;;26.10;99.90;;;;;;4972186;28;20459;-89
2022/06/03 13:51:34;;;;;;;10.10;7.70;;;26.20;99.90;;;;;;4966793;29;20585;-89
2022/06/03 13:54:18;;;;;;;9.60;7.60;;;26.30;99.90;;;;;;4968128;29;20450;-89
2022/06/03 13:56:58;;;;;;;9.40;7.10;;;26.20;99.90;;;;;;4967846;29;20485;-89
2022/06/03 13:59:27;;;;;;;8.80;7.43;;;26.00;99.90;;;;;;4976251;28;20457;-89
2022/06/03 14:01:55;;;;;;;10.03;7.23;;;26.00;99.90;;;;;;4967219;29;20523;-90
2022/06/03 14:04:27;;;;;;;9.17;7.33;;;26.00;99.90;;;;;;4967308;29;20442;-89
2022/06/03 14:07:00;;;;;;;10.67;6.80;;;26.10;99.90;;;;;;4968721;29;20465;-89
2022/06/03 14:09:48;;;;;;;9.83;7.37;;;26.00;99.90;;;;;;4970515;28;20457;-89
2022/06/03 14:12:27;;;;;;;9.23;7.07;;;26.10;99.90;;;;;;4971405;28;20457;-89
2022/06/03 14:15:04;;;;;;;10.00;7.20;;;26.10;99.90;;;;;;4969619;29;20442;-89
2022/06/03 14:17:48;;;;;;;9.70;6.90;;;26.20;99.90;;;;;;4969708;28;20504;-89
2022/06/03 14:20:18;;;;;;;8.57;7.40;;;26.20;99.90;;;;;;4969847;29;20501;-89
2022/06/03 14:22:51;;;;;;;13.00;9.60;;;26.00;99.90;;;;;;4975226;29;20497;-90
2022/06/03 14:25:32;;;;;;;10.47;8.40;;;26.00;99.90;;;;;;4969109;28;20450;-90
2022/06/03 14:28:08;;;;;;;10.57;7.10;;;25.90;99.90;;;;;;4968725;29;20442;-89
2022/06/03 14:30:48;;;;;;;11.20;8.03;;;25.80;99.90;;;;;;4969303;29;20445;-89
2022/06/03 14:33:16;;;;;;;11.03;7.70;;;25.60;99.90;;;;;;4977756;29;20436;-89
2022/06/03 14:38:21;;;;;;;11.07;7.17;;;25.70;99.90;;;;;;4907011;29;20556;-88
2022/06/03 14:40:55;;;;;;;8.70;7.43;;;25.60;99.90;;;;;;4905666;29;20459;-90
2022/06/03 14:43:26;;;;;;;8.70;6.80;;;25.60;99.90;;;;;;4909710;29;20456;-90
2022/06/03 14:45:59;;;;;;;13.33;10.20;;;25.70;99.90;;;;;;4904552;29;20493;-89
2022/06/03 14:48:32;;;;;;;9.20;6.90;;;25.80;99.90;;;;;;4904995;29;20465;-89
2022/06/03 14:51:06;;;;;;;11.53;6.47;;;26.00;99.90;;;;;;4903396;29;20444;-90
2022/06/03 14:53:36;;;;;;;8.07;7.27;;;26.40;99.90;;;;;;4902841;29;20440;-90
2022/06/03 14:56:11;;;;;;;9.30;6.33;;;26.50;99.90;;;;;;4903610;29;20504;-89